createdAt,value
2022-10-05T00:01:24.245Z,1.52
2022-10-05T00:05:20.209Z,1.10
2022-10-05T00:09:02.119Z,1.42
2022-10-05T00:12:48.375Z,2.00
2022-10-05T00:16:30.281Z,1.65
2022-10-05T00:20:22.570Z,1.58
2022-10-05T00:24:10.551Z,1.42
2022-10-05T00:28:00.503Z,1.52
2022-10-05T00:31:42.381Z,1.13
2022-10-05T00:35:24.541Z,2.00
2022-10-05T00:39:06.563Z,1.52
2022-10-05T00:43:10.264Z,1.60
2022-10-05T00:46:58.369Z,1.33
2022-10-05T00:50:43.373Z,1.92
2022-10-05T00:54:42.519Z,2.40
2022-10-05T00:58:49.869Z,1.27
2022-10-05T01:02:46.177Z,2.42
2022-10-05T01:06:50.965Z,1.63
2022-10-05T01:10:45.429Z,2.00
2022-10-05T01:14:47.904Z,1.70
2022-10-05T01:18:50.956Z,2.67
2022-10-05T01:23:06.929Z,1.40
2022-10-05T01:27:00.717Z,2.08
2022-10-05T01:30:52.018Z,1.60
2022-10-05T01:35:01.198Z,1.70
2022-10-05T01:38:59.778Z,2.00
2022-10-05T01:42:51.339Z,1.90
2022-10-05T01:46:39.072Z,1.17
2022-10-05T01:50:52.279Z,1.65
2022-10-05T01:54:45.204Z,2.10
2022-10-05T01:58:58.126Z,1.92
2022-10-05T02:02:54.980Z,1.92
2022-10-05T02:06:41.896Z,1.85
2022-10-05T02:10:37.473Z,2.00
2022-10-05T02:14:24.526Z,1.55
2022-10-05T02:18:18.071Z,1.88
2022-10-05T02:22:05.347Z,2.38
2022-10-05T02:25:49.531Z,1.83
2022-10-05T02:29:34.985Z,2.10
2022-10-05T02:33:29.967Z,1.63
2022-10-05T02:37:20.579Z,1.75
2022-10-05T02:41:29.642Z,1.60
2022-10-05T02:45:40.822Z,2.05
2022-10-05T02:49:49.046Z,1.95
2022-10-05T02:53:56.241Z,2.13
2022-10-05T02:57:53.192Z,1.70
2022-10-05T03:01:57.123Z,2.25
2022-10-05T03:05:53.265Z,1.98
2022-10-05T03:09:44.315Z,2.42
2022-10-05T03:13:54.848Z,1.70
2022-10-05T03:17:52.388Z,1.63
2022-10-05T03:22:16.927Z,2.33
2022-10-05T03:26:24.995Z,2.10
2022-10-05T03:30:13.001Z,1.83
2022-10-05T03:34:06.546Z,2.40
2022-10-05T03:38:14.403Z,1.88
2022-10-05T03:42:23.415Z,2.45
2022-10-05T03:46:27.974Z,1.73
2022-10-05T03:50:22.095Z,1.85
2022-10-05T03:54:19.638Z,2.80
2022-10-05T03:58:16.167Z,2.65
2022-10-05T04:02:06.684Z,2.25
2022-10-05T04:05:59.802Z,1.85
2022-10-05T04:09:45.690Z,2.22
2022-10-05T04:13:46.753Z,2.23
2022-10-05T04:17:33.533Z,1.80
2022-10-05T04:25:17.905Z,2.00
2022-10-05T04:29:05.542Z,2.83
2022-10-05T04:32:54.137Z,1.77
2022-10-05T04:36:45.281Z,2.50
2022-10-05T04:41:05.371Z,2.35
2022-10-05T04:45:13.533Z,2.33
2022-10-05T04:48:58.159Z,2.70
2022-10-05T04:53:08.835Z,2.00
2022-10-05T04:56:58.529Z,2.10
2022-10-05T05:01:01.736Z,1.65
2022-10-05T05:04:55.617Z,2.00
2022-10-05T05:08:49.466Z,1.77
2022-10-05T05:12:41.594Z,1.83
2022-10-05T05:16:35.321Z,1.70
2022-10-05T05:20:59.825Z,2.33
2022-10-05T05:25:20.805Z,1.60
2022-10-05T05:29:26.201Z,2.25
2022-10-05T05:33:31.322Z,2.38
2022-10-05T05:38:00.717Z,2.03
2022-10-05T05:42:01.101Z,1.38
2022-10-05T05:46:02.918Z,2.53
2022-10-05T05:50:10.337Z,2.10
2022-10-05T05:54:14.584Z,2.33
2022-10-05T05:58:38.653Z,2.55
2022-10-05T06:02:26.497Z,2.53
2022-10-05T06:06:15.807Z,3.03
2022-10-05T06:10:05.670Z,3.58
2022-10-05T06:13:48.486Z,2.88
2022-10-05T06:17:58.051Z,3.20
2022-10-05T06:21:53.406Z,2.88
2022-10-05T06:25:55.592Z,3.15
2022-10-05T06:29:46.158Z,2.53
2022-10-05T06:34:03.117Z,2.47
2022-10-05T06:38:22.228Z,3.08
2022-10-05T06:42:42.019Z,2.85
2022-10-05T06:46:36.101Z,2.30
2022-10-05T06:50:26.883Z,2.28
2022-10-05T06:54:36.625Z,2.72
2022-10-05T06:58:44.611Z,2.70
2022-10-05T07:02:37.600Z,2.88
2022-10-05T07:06:34.250Z,2.67
2022-10-05T07:14:14.719Z,3.40
2022-10-05T07:18:50.095Z,3.33
2022-10-05T07:22:40.491Z,3.20
2022-10-05T07:26:33.058Z,4.05
2022-10-05T07:30:16.166Z,3.50
2022-10-05T07:34:09.265Z,2.65
2022-10-05T07:37:55.617Z,3.30
2022-10-05T07:42:18.985Z,3.80
2022-10-05T07:46:11.232Z,2.97
2022-10-05T07:50:24.044Z,3.35
2022-10-05T07:54:15.676Z,3.05
2022-10-05T07:58:09.463Z,2.20
2022-10-05T08:01:59.663Z,2.85
2022-10-05T08:05:45.242Z,2.80
2022-10-05T08:09:38.973Z,2.65
2022-10-05T08:13:44.604Z,3.45
2022-10-05T08:17:38.733Z,3.10
2022-10-05T08:21:40.042Z,2.78
2022-10-05T08:25:59.118Z,3.10
2022-10-05T08:30:01.462Z,3.05
2022-10-05T08:34:02.959Z,3.05
2022-10-05T08:37:46.262Z,3.08
2022-10-05T08:41:46.830Z,2.75
2022-10-05T08:45:42.961Z,3.10
2022-10-05T08:49:49.453Z,3.22
2022-10-05T08:53:45.944Z,2.67
2022-10-05T09:01:59.670Z,2.75
2022-10-05T09:06:14.616Z,3.50
2022-10-05T09:10:15.010Z,2.70
2022-10-05T09:14:15.750Z,2.80
2022-10-05T09:18:25.596Z,2.13
2022-10-05T09:22:35.389Z,4.53
2022-10-05T09:26:54.832Z,2.63
2022-10-05T09:30:39.606Z,2.90
2022-10-05T09:34:37.069Z,2.72
2022-10-05T09:38:50.379Z,2.20
2022-10-05T09:42:56.578Z,1.88
2022-10-05T09:47:09.140Z,1.20
2022-10-05T09:51:12.770Z,0.70
2022-10-05T09:55:05.530Z,0.90
2022-10-05T09:59:07.583Z,0.65
2022-10-05T10:03:28.889Z,0.60
2022-10-05T10:07:54.158Z,0.40
2022-10-05T10:11:55.979Z,0.50
2022-10-05T10:16:06.211Z,0.65
2022-10-05T10:20:06.745Z,0.40
2022-10-05T10:24:22.386Z,0.20
2022-10-05T10:28:26.238Z,0.20
2022-10-05T10:32:10.851Z,0.28
2022-10-05T10:36:18.867Z,0.30
2022-10-05T10:40:42.196Z,0.40
2022-10-05T10:44:44.322Z,0.20
2022-10-05T10:48:28.866Z,0.50
2022-10-05T10:52:47.706Z,0.55
2022-10-05T10:57:04.904Z,0.50
2022-10-05T11:01:04.834Z,0.63
2022-10-05T11:05:14.663Z,0.80
2022-10-05T11:09:28.990Z,0.90
2022-10-05T11:13:24.796Z,0.50
2022-10-05T11:17:25.537Z,0.60
2022-10-05T11:21:13.134Z,0.15
2022-10-05T11:25:27.735Z,0.40
2022-10-05T11:29:32.591Z,0.30
2022-10-05T11:33:29.762Z,0.40
2022-10-05T11:37:31.959Z,1.05
2022-10-05T11:41:13.735Z,0.60
2022-10-05T11:45:22.057Z,0.70
2022-10-05T11:49:15.582Z,0.40
2022-10-05T11:53:13.911Z,0.43
2022-10-05T11:57:24.233Z,0.20
2022-10-05T12:01:36.548Z,0.20
2022-10-05T12:05:39.756Z,0.40
2022-10-05T12:10:10.531Z,0.50
2022-10-05T12:14:00.507Z,1.55
2022-10-05T12:18:24.456Z,0.45
2022-10-05T12:22:18.161Z,0.50
2022-10-05T12:26:05.121Z,0.70
2022-10-05T12:30:11.154Z,0.65
2022-10-05T12:34:23.860Z,0.40
2022-10-05T12:38:18.074Z,0.40
2022-10-05T12:42:09.703Z,0.55
2022-10-05T12:46:00.744Z,0.30
2022-10-05T12:50:04.206Z,0.73
2022-10-05T12:54:19.299Z,0.55
2022-10-05T12:58:13.727Z,0.35
2022-10-05T13:01:58.416Z,0.40
2022-10-05T13:05:40.199Z,0.82
2022-10-05T13:09:40.029Z,0.40
2022-10-05T13:13:43.399Z,0.93
2022-10-05T13:17:46.175Z,0.30
2022-10-05T13:21:46.313Z,0.50
2022-10-05T13:25:37.388Z,0.47
2022-10-05T13:29:25.997Z,0.63
2022-10-05T13:33:18.108Z,0.70
2022-10-05T13:37:26.318Z,0.60
2022-10-05T13:41:25.910Z,0.70
2022-10-05T13:45:55.790Z,0.77
2022-10-05T13:49:44.442Z,0.20
2022-10-05T13:53:35.511Z,0.90
2022-10-05T13:57:48.040Z,0.98
2022-10-05T14:01:48.738Z,0.52
2022-10-05T14:05:31.808Z,0.90
2022-10-05T14:09:22.630Z,0.50
2022-10-05T14:13:46.790Z,0.80
2022-10-05T14:17:41.329Z,0.90
2022-10-05T14:21:26.089Z,0.75
2022-10-05T14:25:07.868Z,0.75
2022-10-05T14:29:16.744Z,0.90
2022-10-05T14:33:04.850Z,0.88
2022-10-05T14:36:55.076Z,1.02
2022-10-05T14:40:38.090Z,0.80
2022-10-05T14:48:19.816Z,0.80
2022-10-05T14:52:27.379Z,0.82
2022-10-05T14:56:24.263Z,0.63
2022-10-05T15:00:16.635Z,1.10
2022-10-05T15:04:07.759Z,1.10
2022-10-05T15:07:51.216Z,1.10
2022-10-05T15:11:58.249Z,0.80
2022-10-05T15:16:00.238Z,1.00
2022-10-05T15:20:17.955Z,1.60
2022-10-05T15:24:12.314Z,1.50
2022-10-05T15:28:30.324Z,1.08
2022-10-05T15:32:20.715Z,1.10
2022-10-05T15:36:17.692Z,1.42
2022-10-05T15:40:15.780Z,2.30
2022-10-05T15:44:35.432Z,1.80
2022-10-05T15:48:45.383Z,2.42
2022-10-05T15:52:43.838Z,1.17
2022-10-05T15:56:36.178Z,1.88
2022-10-05T16:00:20.815Z,2.05
2022-10-05T16:04:11.314Z,2.42
2022-10-05T16:08:12.723Z,2.28
2022-10-05T16:12:22.310Z,1.63
2022-10-05T16:16:33.908Z,1.88
2022-10-05T16:20:38.380Z,1.92
2022-10-05T16:24:53.578Z,1.73
2022-10-05T16:28:53.749Z,1.58
2022-10-05T16:32:50.002Z,1.70
2022-10-05T16:36:35.748Z,1.60
2022-10-05T16:40:31.160Z,1.42
2022-10-05T16:44:31.139Z,1.98
2022-10-05T16:48:25.865Z,2.55
2022-10-05T16:52:13.834Z,2.53
2022-10-05T16:56:01.846Z,2.28
2022-10-05T17:00:17.775Z,2.13
2022-10-05T17:04:28.781Z,1.85
2022-10-05T17:08:51.174Z,1.85
2022-10-05T17:12:40.026Z,2.13
2022-10-05T17:16:59.275Z,1.90
2022-10-05T17:21:28.587Z,2.70
2022-10-05T17:25:15.110Z,2.47
2022-10-05T17:28:59.676Z,3.13
2022-10-05T17:32:58.249Z,3.10
2022-10-05T17:36:44.037Z,3.03
2022-10-05T17:40:34.325Z,2.70
2022-10-05T17:44:19.520Z,2.80
2022-10-05T17:48:06.236Z,2.95
2022-10-05T17:52:06.797Z,3.50
2022-10-05T17:56:03.364Z,4.10
2022-10-05T17:59:57.067Z,2.65
2022-10-05T18:03:41.570Z,3.17
2022-10-05T18:07:24.695Z,2.97
2022-10-05T18:11:17.129Z,3.13
2022-10-05T18:15:01.855Z,4.10
2022-10-05T18:18:43.661Z,3.58
2022-10-05T18:22:27.859Z,2.92
2022-10-05T18:26:48.604Z,2.72
2022-10-05T18:30:53.182Z,2.25
2022-10-05T18:34:49.855Z,2.70
2022-10-05T18:39:01.465Z,3.15
2022-10-05T18:42:48.516Z,3.33
2022-10-05T18:50:45.251Z,3.30
2022-10-05T18:55:00.240Z,3.47
2022-10-05T18:59:09.634Z,2.70
2022-10-05T19:03:04.013Z,4.25
2022-10-05T19:06:49.084Z,3.70
2022-10-05T19:10:39.955Z,4.55
2022-10-05T19:14:33.519Z,3.67
2022-10-05T19:18:24.445Z,3.83
2022-10-05T19:22:12.810Z,4.35
2022-10-05T19:25:59.689Z,3.10
2022-10-05T19:29:55.763Z,2.67
2022-10-05T19:33:46.220Z,2.87
2022-10-05T19:37:43.385Z,2.97
2022-10-05T19:41:35.080Z,3.42
2022-10-05T19:45:28.183Z,3.25
2022-10-05T19:49:13.455Z,2.50
2022-10-05T19:53:04.195Z,2.75
2022-10-05T19:56:52.812Z,2.72
2022-10-05T20:00:35.476Z,2.83
2022-10-05T20:04:38.181Z,3.15
2022-10-05T20:08:22.098Z,2.75
2022-10-05T20:12:04.239Z,3.40
2022-10-05T20:16:45.015Z,3.22
2022-10-05T20:20:45.785Z,3.72
2022-10-05T20:24:48.413Z,3.33
2022-10-05T20:28:31.819Z,2.80
2022-10-05T20:32:17.918Z,2.95
2022-10-05T20:36:00.315Z,3.03
2022-10-05T20:39:42.260Z,3.80
2022-10-05T20:43:24.162Z,2.38
2022-10-05T20:47:08.993Z,1.95
2022-10-05T20:50:50.937Z,2.60
2022-10-05T20:54:32.911Z,2.58
2022-10-05T20:58:14.786Z,2.90
2022-10-05T21:01:58.202Z,3.67
2022-10-05T21:05:39.994Z,3.38
2022-10-05T21:09:22.239Z,3.33
2022-10-05T21:13:04.181Z,3.75
2022-10-05T21:16:46.048Z,4.15
2022-10-05T21:20:27.911Z,3.35
2022-10-05T21:24:11.273Z,3.50
2022-10-05T21:27:54.162Z,3.50
2022-10-05T21:31:36.266Z,2.97
2022-10-05T21:35:18.233Z,3.55
2022-10-05T21:39:00.317Z,3.80
2022-10-05T21:42:42.206Z,2.67
2022-10-05T21:46:27.668Z,3.17
2022-10-05T21:50:10.282Z,2.85
2022-10-05T21:54:02.905Z,2.58
2022-10-05T21:57:46.098Z,3.08
2022-10-05T22:01:29.107Z,2.88
2022-10-05T22:05:11.031Z,2.50
2022-10-05T22:08:52.886Z,2.58
2022-10-05T22:12:34.740Z,3.78
2022-10-05T22:16:19.339Z,2.63
2022-10-05T22:20:01.916Z,2.67
2022-10-05T22:23:45.664Z,3.42
2022-10-05T22:27:29.484Z,2.47
2022-10-05T22:31:12.846Z,2.55
2022-10-05T22:34:54.720Z,2.90
2022-10-05T22:38:36.613Z,3.67
2022-10-05T22:42:18.520Z,2.92
2022-10-05T22:46:01.114Z,2.88
2022-10-05T22:49:43.052Z,2.20
2022-10-05T22:53:24.855Z,2.22
2022-10-05T22:57:06.862Z,2.40
2022-10-05T23:00:58.031Z,2.88
2022-10-05T23:04:40.914Z,2.35
2022-10-05T23:08:22.699Z,2.28
2022-10-05T23:12:04.623Z,2.05
2022-10-05T23:15:46.481Z,2.55
2022-10-05T23:19:28.283Z,2.00
2022-10-05T23:23:10.188Z,1.90
2022-10-05T23:26:52.017Z,2.35
2022-10-05T23:30:33.853Z,2.22
2022-10-05T23:34:15.686Z,3.67
2022-10-05T23:37:57.503Z,2.78
2022-10-05T23:41:39.798Z,1.83
2022-10-05T23:45:21.610Z,1.77
2022-10-05T23:49:03.604Z,1.73
2022-10-05T23:52:45.545Z,2.47
2022-10-05T23:56:27.376Z,1.83
